Time;durP1;ratioP1;P1;durP2;ratioP2;P2;SDS_P1;SDS_P2;PMS_P1;PMS_P2;Temp;Humidity;BMP_temperature;BMP_pressure;BME280_temperature;BME280_humidity;BME280_pressure;Samples;Min_cycle;Max_cycle;Signal;HPM_P1;HPM_P2
2021/06/25 00:01:34;;;;;;;3.97;1.73;;;16.30;99.90;;;;;;4976387;28;20284;-89
2021/06/25 00:04:01;;;;;;;2.00;1.90;;;16.30;99.90;;;;;;4969713;28;20224;-90
2021/06/25 00:06:28;;;;;;;2.38;1.70;;;16.30;99.90;;;;;;4981347;28;20239;-90
2021/06/25 00:08:55;;;;;;;2.22;1.75;;;16.40;99.90;;;;;;4981346;28;20238;-90
2021/06/25 00:11:23;;;;;;;3.50;1.95;;;16.40;99.90;;;;;;4974963;28;20292;-90
2021/06/25 00:13:51;;;;;;;2.33;2.03;;;16.40;99.70;;;;;;4967314;28;20307;-89
2021/06/25 00:16:18;;;;;;;3.35;1.70;;;16.40;99.90;;;;;;4980211;28;20291;-89
2021/06/25 00:18:46;;;;;;;2.92;1.73;;;16.40;99.80;;;;;;4965991;28;20239;-90
2021/06/25 00:21:35;;;;;;;1.77;1.67;;;16.30;99.80;;;;;;4981930;28;20206;-90
2021/06/25 00:24:02;;;;;;;2.60;1.55;;;16.30;99.90;;;;;;4985235;28;20311;-89
2021/06/25 00:26:29;;;;;;;3.58;1.85;;;16.40;99.90;;;;;;4985315;28;20224;-90
2021/06/25 00:28:56;;;;;;;1.70;1.50;;;16.40;99.90;;;;;;4981611;28;20713;-90
2021/06/25 00:31:23;;;;;;;1.65;1.55;;;16.50;99.60;;;;;;4985640;28;20207;-90
2021/06/25 00:33:51;;;;;;;2.25;1.65;;;16.50;99.30;;;;;;4983485;28;20251;-90
2021/06/25 00:36:18;;;;;;;2.50;1.70;;;16.40;99.10;;;;;;4983263;28;20264;-90
2021/06/25 00:38:45;;;;;;;4.80;1.65;;;16.40;99.50;;;;;;4984271;28;20228;-89
2021/06/25 00:41:12;;;;;;;2.15;1.77;;;16.40;99.80;;;;;;4973546;28;20197;-90
2021/06/25 00:43:39;;;;;;;2.25;1.70;;;16.30;99.40;;;;;;4975985;28;20228;-90
2021/06/25 00:46:06;;;;;;;3.50;1.58;;;16.30;99.40;;;;;;4984224;28;20234;-89
2021/06/25 00:48:33;;;;;;;1.65;1.55;;;16.30;99.50;;;;;;4982979;28;20315;-89
2021/06/25 00:51:02;;;;;;;1.63;1.52;;;16.30;99.20;;;;;;4983763;28;20243;-90
2021/06/25 00:53:29;;;;;;;1.60;1.50;;;16.30;99.20;;;;;;4982932;28;20232;-89
2021/06/25 00:55:56;;;;;;;2.30;1.55;;;16.20;99.50;;;;;;4983834;28;20514;-89
2021/06/25 00:58:23;;;;;;;1.55;1.40;;;16.10;99.70;;;;;;4970549;28;20260;-89
2021/06/25 01:00:50;;;;;;;1.52;1.42;;;16.20;99.40;;;;;;4978243;28;20291;-89
2021/06/25 01:03:17;;;;;;;1.40;1.30;;;16.10;99.40;;;;;;4979752;28;20273;-90
2021/06/25 01:05:44;;;;;;;1.50;1.25;;;16.20;99.20;;;;;;4968590;28;20311;-89
2021/06/25 01:08:13;;;;;;;1.55;1.40;;;16.20;98.60;;;;;;4983925;28;20208;-90
2021/06/25 01:10:41;;;;;;;3.47;1.25;;;16.20;98.80;;;;;;4980581;28;20670;-89
2021/06/25 01:13:09;;;;;;;1.88;1.23;;;16.20;98.60;;;;;;4981487;28;20690;-90
2021/06/25 01:15:36;;;;;;;1.50;1.40;;;16.10;98.50;;;;;;4983435;28;20192;-89
2021/06/25 01:18:03;;;;;;;2.85;1.40;;;16.10;99.00;;;;;;4980329;28;20205;-89
2021/06/25 01:20:32;;;;;;;2.25;1.20;;;16.10;98.80;;;;;;4981010;28;20548;-90
2021/06/25 01:23:00;;;;;;;1.50;1.40;;;16.10;98.70;;;;;;4977704;28;20211;-89
2021/06/25 01:25:29;;;;;;;2.92;1.40;;;16.10;99.00;;;;;;4963022;28;20232;-89
2021/06/25 01:27:57;;;;;;;2.83;1.80;;;16.00;98.90;;;;;;4977540;28;20204;-89
2021/06/25 01:30:27;;;;;;;2.58;1.70;;;15.90;99.30;;;;;;4975827;28;20197;-89
2021/06/25 01:32:54;;;;;;;1.90;1.48;;;15.80;99.50;;;;;;4975519;28;20217;-90
2021/06/25 01:35:21;;;;;;;1.50;1.40;;;15.80;99.70;;;;;;4967636;28;20568;-90
2021/06/25 01:37:49;;;;;;;1.65;1.55;;;15.70;99.70;;;;;;4978103;28;20585;-91
2021/06/25 01:40:20;;;;;;;1.60;1.50;;;15.70;99.90;;;;;;4977851;28;20228;-89
2021/06/25 01:42:48;;;;;;;1.60;1.50;;;15.70;99.90;;;;;;4976525;28;20208;-90
2021/06/25 01:45:16;;;;;;;1.60;1.50;;;15.70;99.90;;;;;;4976820;28;20243;-89
2021/06/25 01:47:44;;;;;;;1.42;1.33;;;15.70;99.90;;;;;;4969997;28;20208;-89
2021/06/25 01:50:13;;;;;;;2.25;1.30;;;15.70;99.90;;;;;;4976242;28;20220;-89
2021/06/25 01:52:43;;;;;;;1.50;1.40;;;15.60;99.90;;;;;;4976756;28;20204;-89
2021/06/25 01:55:11;;;;;;;1.50;1.33;;;15.60;99.90;;;;;;4975673;28;20240;-90
2021/06/25 01:57:40;;;;;;;1.88;1.40;;;15.70;99.80;;;;;;4978313;28;20723;-89
2021/06/25 02:00:08;;;;;;;2.78;1.60;;;15.60;99.70;;;;;;4975681;28;20228;-90
2021/06/25 02:02:36;;;;;;;1.40;1.30;;;15.60;99.80;;;;;;4977125;28;20215;-90
2021/06/25 02:05:03;;;;;;;2.63;1.30;;;15.60;99.90;;;;;;4969493;28;20233;-89
2021/06/25 02:07:30;;;;;;;1.75;1.58;;;15.60;99.90;;;;;;4970913;28;20209;-90
2021/06/25 02:09:57;;;;;;;1.38;1.27;;;15.50;99.60;;;;;;4970766;28;20224;-90
2021/06/25 02:12:24;;;;;;;2.58;1.40;;;15.40;99.90;;;;;;4977669;28;20225;-90
2021/06/25 02:17:34;;;;;;;1.23;1.13;;;15.40;99.90;;;;;;4971142;28;20200;-90
2021/06/25 02:20:01;;;;;;;1.20;1.10;;;15.40;99.90;;;;;;4978075;28;20718;-89
2021/06/25 02:22:28;;;;;;;1.17;1.08;;;15.30;99.70;;;;;;4978273;28;20219;-90
2021/06/25 02:24:54;;;;;;;1.92;1.25;;;15.30;99.70;;;;;;4970027;28;20229;-89
2021/06/25 02:27:21;;;;;;;2.75;1.20;;;15.30;99.90;;;;;;4963356;28;20208;-89
2021/06/25 02:29:48;;;;;;;1.30;1.20;;;15.30;99.90;;;;;;4965234;28;20231;-89
2021/06/25 02:32:16;;;;;;;1.30;1.20;;;15.20;99.60;;;;;;4978659;28;20629;-89
2021/06/25 02:34:44;;;;;;;2.38;1.20;;;15.10;99.90;;;;;;4971445;28;20261;-89
2021/06/25 02:37:11;;;;;;;2.58;1.13;;;15.10;99.90;;;;;;4973133;28;20208;-90
2021/06/25 02:39:38;;;;;;;1.10;1.10;;;15.20;99.90;;;;;;4976893;28;20229;-89
2021/06/25 02:42:06;;;;;;;1.67;1.20;;;15.20;99.70;;;;;;4978312;28;20210;-89
2021/06/25 02:44:32;;;;;;;2.47;1.20;;;15.10;99.80;;;;;;4977701;28;20312;-90
2021/06/25 02:47:00;;;;;;;2.55;1.40;;;15.10;99.90;;;;;;4972830;28;20229;-90
2021/06/25 02:49:28;;;;;;;1.40;1.30;;;15.10;99.90;;;;;;4965564;28;20238;-90
2021/06/25 02:51:55;;;;;;;1.55;1.20;;;15.10;99.90;;;;;;4966220;28;20205;-90
2021/06/25 02:54:22;;;;;;;1.10;1.10;;;15.10;99.90;;;;;;4977242;28;20236;-89
2021/06/25 02:56:49;;;;;;;3.28;1.20;;;15.10;99.90;;;;;;4978038;28;20204;-90
2021/06/25 02:59:15;;;;;;;2.25;1.10;;;15.10;99.90;;;;;;4977829;28;20236;-89
2021/06/25 03:01:42;;;;;;;1.40;1.13;;;15.10;99.90;;;;;;4979179;28;20208;-89
2021/06/25 03:04:09;;;;;;;3.08;1.27;;;15.10;99.90;;;;;;4976836;28;20253;-90
2021/06/25 03:06:37;;;;;;;1.98;1.27;;;15.20;99.90;;;;;;4978725;28;20229;-90
2021/06/25 03:09:05;;;;;;;1.20;1.10;;;15.20;99.60;;;;;;4976260;28;20288;-90
2021/06/25 03:11:32;;;;;;;1.30;1.20;;;15.20;99.90;;;;;;4978774;28;20216;-90
2021/06/25 03:13:59;;;;;;;1.50;1.40;;;15.20;99.90;;;;;;4974540;28;20224;-89
2021/06/25 03:16:25;;;;;;;2.05;1.42;;;15.20;99.90;;;;;;4978914;28;20205;-90
2021/06/25 03:18:52;;;;;;;2.88;1.50;;;15.20;99.90;;;;;;4975419;28;20350;-90
2021/06/25 03:21:19;;;;;;;1.70;1.30;;;15.20;99.90;;;;;;4966301;28;20672;-89
2021/06/25 03:23:47;;;;;;;2.60;1.30;;;15.20;99.90;;;;;;4977815;28;20238;-90
2021/06/25 03:26:14;;;;;;;1.92;1.40;;;15.20;99.90;;;;;;4977812;28;20228;-90
2021/06/25 03:28:41;;;;;;;1.45;1.35;;;15.20;99.90;;;;;;4973226;28;20242;-90
2021/06/25 03:31:08;;;;;;;1.55;1.40;;;15.20;99.90;;;;;;4976055;28;20573;-89
2021/06/25 03:33:35;;;;;;;2.97;1.60;;;15.30;99.90;;;;;;4977586;28;20232;-90
2021/06/25 03:36:02;;;;;;;2.00;1.40;;;15.20;99.90;;;;;;4968702;28;20724;-90
2021/06/25 03:38:30;;;;;;;4.20;1.40;;;15.20;99.90;;;;;;4975800;28;20235;-91
2021/06/25 03:40:59;;;;;;;1.58;1.45;;;15.20;99.90;;;;;;4976412;28;20200;-91
2021/06/25 03:43:26;;;;;;;1.73;1.40;;;15.30;99.90;;;;;;4976047;28;20224;-90
2021/06/25 03:45:53;;;;;;;1.48;1.38;;;15.30;99.90;;;;;;4966518;28;20225;-89
2021/06/25 03:48:20;;;;;;;2.95;1.75;;;15.30;99.90;;;;;;4975010;28;20232;-90
2021/06/25 03:50:46;;;;;;;2.25;1.30;;;15.30;99.90;;;;;;4972798;28;20661;-90
2021/06/25 03:53:13;;;;;;;1.20;1.10;;;15.40;99.90;;;;;;4973245;28;20228;-89
2021/06/25 03:56:09;;;;;;;1.38;1.27;;;15.40;99.60;;;;;;4977770;28;20232;-89
2021/06/25 03:58:29;;;;;;;1.50;1.40;;;15.40;99.60;;;;;;4977389;28;20224;-89
2021/06/25 04:00:56;;;;;;;1.65;1.55;;;15.40;99.10;;;;;;4978594;28;20200;-90
2021/06/25 04:03:23;;;;;;;2.83;1.48;;;15.30;99.60;;;;;;4978127;28;20228;-89
2021/06/25 04:05:50;;;;;;;1.52;1.42;;;15.40;99.60;;;;;;4978191;28;20599;-89
2021/06/25 04:08:18;;;;;;;2.00;1.40;;;15.40;99.50;;;;;;4978198;28;20231;-90
2021/06/25 04:10:45;;;;;;;1.50;1.40;;;15.40;99.50;;;;;;4972930;28;20255;-89
2021/06/25 04:13:12;;;;;;;1.63;1.50;;;15.50;99.10;;;;;;4978886;28;20266;-90
2021/06/25 04:18:21;;;;;;;1.50;1.40;;;15.40;99.00;;;;;;4976721;28;20220;-90
2021/06/25 04:20:48;;;;;;;1.30;1.20;;;15.50;99.20;;;;;;4965148;28;20541;-89
2021/06/25 04:23:15;;;;;;;1.73;1.30;;;15.50;99.00;;;;;;4977608;28;20242;-90
2021/06/25 04:25:42;;;;;;;1.73;1.50;;;15.50;99.00;;;;;;4978928;28;20204;-90
2021/06/25 04:28:09;;;;;;;4.55;1.50;;;15.50;99.00;;;;;;4977852;28;20234;-90
2021/06/25 04:30:38;;;;;;;2.20;1.52;;;15.50;99.00;;;;;;4968499;28;20211;-90
2021/06/25 04:33:08;;;;;;;1.42;1.33;;;15.40;98.70;;;;;;4977662;28;20210;-91
2021/06/25 04:35:36;;;;;;;2.50;1.40;;;15.30;98.90;;;;;;4978786;28;20586;-90
2021/06/25 04:38:03;;;;;;;2.03;1.50;;;15.30;98.90;;;;;;4976919;28;20204;-90
2021/06/25 04:40:31;;;;;;;1.70;1.60;;;15.30;98.90;;;;;;4978088;28;20537;-90
2021/06/25 04:42:58;;;;;;;4.00;1.85;;;15.50;99.00;;;;;;4976949;28;20259;-90
2021/06/25 04:45:25;;;;;;;1.73;1.63;;;15.40;98.80;;;;;;4978089;28;20251;-89
2021/06/25 04:47:52;;;;;;;2.28;1.58;;;15.40;99.00;;;;;;4977281;28;20212;-92
2021/06/25 04:53:08;;;;;;;2.15;1.90;;;15.50;99.10;;;;;;4976367;28;20220;-90
2021/06/25 04:55:41;;;;;;;1.35;1.27;;;15.60;98.30;;;;;;4976770;28;20200;-90
2021/06/25 04:58:09;;;;;;;2.00;1.50;;;15.60;98.30;;;;;;4976454;28;20657;-91
2021/06/25 05:00:36;;;;;;;1.65;1.30;;;15.80;98.20;;;;;;4972963;28;20202;-90
2021/06/25 05:04:16;;;;;;;3.92;1.30;;;15.80;98.20;;;;;;4975162;28;20303;-90
2021/06/25 05:06:46;;;;;;;1.67;1.58;;;15.80;97.20;;;;;;4982575;28;20209;-91
2021/06/25 05:09:55;;;;;;;2.05;1.30;;;16.00;97.10;;;;;;4977101;28;20220;-90
2021/06/25 05:12:22;;;;;;;4.82;1.63;;;16.30;96.80;;;;;;4982401;28;20219;-91
2021/06/25 05:14:50;;;;;;;3.35;1.40;;;16.40;96.30;;;;;;4981937;28;20609;-91
2021/06/25 05:20:40;;;;;;;1.58;1.45;;;16.80;94.60;;;;;;4980909;28;20231;-89
2021/06/25 05:23:10;;;;;;;1.85;1.75;;;16.90;94.10;;;;;;4983751;28;20204;-90
2021/06/25 05:25:42;;;;;;;1.42;1.33;;;17.00;93.20;;;;;;4973216;28;20208;-91
2021/06/25 05:28:28;;;;;;;1.83;1.70;;;17.10;93.30;;;;;;4980481;28;20223;-91
2021/06/25 05:30:55;;;;;;;2.67;1.50;;;17.10;92.70;;;;;;4983739;28;20224;-91
2021/06/25 05:33:23;;;;;;;1.90;1.30;;;17.10;92.60;;;;;;4983617;28;20244;-92
2021/06/25 05:35:50;;;;;;;1.60;1.50;;;17.20;92.70;;;;;;4984926;28;20215;-93
2021/06/25 05:38:18;;;;;;;1.52;1.42;;;17.30;92.40;;;;;;4967980;28;20287;-93
2021/06/25 05:44:30;;;;;;;1.40;1.27;;;17.50;92.00;;;;;;4990172;28;20189;-92
2021/06/25 05:51:03;;;;;;;1.70;1.58;;;17.50;92.00;;;;;;4984569;28;20584;-93
2021/06/25 05:58:34;;;;;;;1.42;1.38;;;17.80;91.60;;;;;;4981189;28;20252;-93
2021/06/25 06:01:01;;;;;;;4.00;1.38;;;17.80;91.70;;;;;;4980482;28;20284;-94
2021/06/25 06:03:28;;;;;;;1.60;1.48;;;17.80;91.00;;;;;;4975065;28;20228;-91
2021/06/25 06:05:55;;;;;;;1.60;1.40;;;17.80;90.70;;;;;;4969190;28;20208;-92
2021/06/25 06:08:22;;;;;;;2.13;1.10;;;17.80;91.20;;;;;;4975104;28;20239;-92
2021/06/25 06:10:48;;;;;;;1.60;1.50;;;18.00;90.70;;;;;;4976173;28;20291;-92
2021/06/25 06:13:15;;;;;;;1.70;1.60;;;18.10;90.30;;;;;;4976762;28;20735;-92
2021/06/25 06:18:27;;;;;;;1.70;1.60;;;18.30;87.60;;;;;;4980472;28;20226;-92
2021/06/25 06:21:13;;;;;;;2.63;1.60;;;18.50;89.60;;;;;;5007385;28;20203;-92
2021/06/25 06:35:27;;;;;;;2.20;2.10;;;18.00;87.80;;;;;;5004340;28;20203;-89
2021/06/25 06:38:01;;;;;;;3.72;2.42;;;17.90;87.50;;;;;;5029734;28;20203;-89
2021/06/25 06:40:28;;;;;;;3.40;2.20;;;17.90;87.20;;;;;;5025900;28;20210;-90
2021/06/25 06:45:38;;;;;;;3.65;2.50;;;17.80;87.40;;;;;;5031206;28;20258;-92
2021/06/25 06:53:29;;;;;;;2.58;2.30;;;17.70;88.10;;;;;;5028198;28;20644;-92
2021/06/25 06:55:55;;;;;;;2.90;2.70;;;17.70;88.90;;;;;;5035725;28;20638;-93
2021/06/25 06:58:22;;;;;;;8.77;3.35;;;17.70;88.70;;;;;;5029123;28;20230;-93
2021/06/25 07:00:49;;;;;;;3.47;3.00;;;17.70;89.70;;;;;;5034348;28;20205;-93
2021/06/25 07:05:58;;;;;;;3.88;3.15;;;17.80;86.90;;;;;;5006695;28;20218;-93
2021/06/25 07:08:26;;;;;;;3.22;2.80;;;18.00;86.60;;;;;;5022283;28;20240;-94
2021/06/25 07:13:34;;;;;;;3.20;2.75;;;19.80;77.00;;;;;;4997227;28;20236;-91
2021/06/25 07:16:02;;;;;;;2.65;2.45;;;21.80;60.50;;;;;;5029458;28;20657;-91
2021/06/25 07:21:11;;;;;;;2.60;2.40;;;27.20;37.60;;;;;;5024183;28;20680;-93
2021/06/25 07:23:38;;;;;;;2.72;2.53;;;28.10;30.90;;;;;;5021126;28;20500;-93
2021/06/25 07:28:46;;;;;;;3.92;2.30;;;26.90;34.10;;;;;;5022031;28;20309;-93
2021/06/25 07:34:31;;;;;;;4.60;2.58;;;24.80;40.50;;;;;;5018631;28;20235;-88
2021/06/25 07:36:58;;;;;;;3.50;2.97;;;23.50;43.00;;;;;;5025533;28;20191;-90
2021/06/25 07:39:37;;;;;;;3.33;2.33;;;22.60;46.70;;;;;;5024903;28;20265;-91
2021/06/25 07:46:04;;;;;;;3.42;2.50;;;21.70;53.60;;;;;;5019351;28;20739;-91
2021/06/25 07:48:51;;;;;;;3.50;2.45;;;21.20;52.80;;;;;;5007010;28;20245;-90
2021/06/25 07:54:00;;;;;;;2.88;2.67;;;20.80;56.60;;;;;;4995766;28;20230;-94
2021/06/25 07:56:27;;;;;;;4.18;2.70;;;20.40;57.70;;;;;;5047933;28;20262;-91
2021/06/25 07:58:55;;;;;;;2.67;2.45;;;20.30;59.50;;;;;;5044747;28;20266;-90
2021/06/25 08:01:43;;;;;;;3.88;2.60;;;20.20;59.70;;;;;;5027599;28;20234;-92
2021/06/25 08:04:10;;;;;;;2.70;2.38;;;19.90;65.00;;;;;;5046933;28;20226;-92
2021/06/25 08:06:39;;;;;;;2.60;2.40;;;19.90;63.30;;;;;;5035202;28;20267;-92
2021/06/25 08:09:07;;;;;;;2.60;2.40;;;19.90;64.60;;;;;;5034136;28;20226;-92
2021/06/25 08:14:18;;;;;;;1.90;1.80;;;19.90;63.80;;;;;;5035354;28;20252;-93
2021/06/25 08:17:05;;;;;;;4.00;1.95;;;20.40;56.20;;;;;;5029068;28;20218;-90
2021/06/25 08:19:32;;;;;;;3.63;2.08;;;22.00;52.90;;;;;;5013370;28;20230;-87
2021/06/25 08:22:01;;;;;;;2.83;1.70;;;23.90;43.20;;;;;;5021828;28;20541;-89
2021/06/25 08:24:27;;;;;;;3.05;2.03;;;27.00;33.40;;;;;;5027602;28;20233;-89
2021/06/25 08:26:55;;;;;;;2.28;1.65;;;29.50;27.90;;;;;;5019904;28;20877;-86
2021/06/25 08:29:22;;;;;;;2.42;1.70;;;31.70;21.30;;;;;;5015173;28;20236;-90
2021/06/25 08:31:49;;;;;;;1.90;1.80;;;33.30;18.30;;;;;;5031111;28;20205;-90
2021/06/25 08:34:16;;;;;;;2.55;2.45;;;32.80;18.00;;;;;;5044475;23;20222;-88
2021/06/25 08:36:43;;;;;;;1.90;1.80;;;33.70;16.70;;;;;;5016976;28;20210;-89
2021/06/25 08:39:11;;;;;;;2.13;1.90;;;33.60;16.80;;;;;;5014522;28;20233;-89
2021/06/25 08:41:39;;;;;;;2.13;2.00;;;34.20;17.20;;;;;;5009516;28;20206;-89
2021/06/25 08:44:07;;;;;;;3.15;2.25;;;33.30;18.20;;;;;;5013874;28;20272;-89
2021/06/25 08:46:34;;;;;;;2.72;1.88;;;33.10;18.10;;;;;;5013058;28;20207;-89
2021/06/25 08:49:04;;;;;;;2.00;1.80;;;30.80;18.80;;;;;;5012352;28;20222;-88
2021/06/25 08:51:31;;;;;;;2.17;1.98;;;29.70;23.20;;;;;;5013801;28;20621;-88
2021/06/25 08:53:58;;;;;;;3.95;1.90;;;29.90;21.80;;;;;;5003920;28;20237;-88
2021/06/25 08:56:32;;;;;;;2.92;1.70;;;29.30;22.50;;;;;;4992542;28;20219;-88
2021/06/25 08:59:00;;;;;;;1.52;1.42;;;28.30;24.50;;;;;;4992233;28;20223;-88
2021/06/25 09:01:30;;;;;;;3.35;1.55;;;28.30;26.50;;;;;;4989562;28;20287;-89
2021/06/25 09:03:57;;;;;;;2.88;1.38;;;28.50;26.10;;;;;;4989093;28;20214;-89
2021/06/25 09:06:26;;;;;;;1.50;1.40;;;27.30;25.90;;;;;;4990211;28;20298;-89
2021/06/25 09:09:11;;;;;;;2.38;1.33;;;26.20;30.00;;;;;;4988441;28;20230;-89
2021/06/25 09:11:43;;;;;;;1.20;1.20;;;26.70;29.90;;;;;;4986800;28;20659;-90
2021/06/25 09:14:10;;;;;;;1.70;1.60;;;28.40;27.10;;;;;;4992391;28;20235;-88
2021/06/25 09:16:39;;;;;;;1.55;1.48;;;30.40;21.20;;;;;;4989224;28;20315;-88
2021/06/25 09:19:07;;;;;;;1.60;1.50;;;31.40;19.80;;;;;;4987652;28;20238;-88
2021/06/25 09:21:37;;;;;;;1.80;1.70;;;31.10;19.70;;;;;;4992984;28;20200;-89
2021/06/25 09:24:21;;;;;;;1.70;1.60;;;30.00;21.20;;;;;;4989673;28;20239;-88
2021/06/25 09:26:50;;;;;;;3.03;1.92;;;29.70;23.00;;;;;;4986436;28;20262;-88
2021/06/25 09:29:20;;;;;;;2.40;1.95;;;31.00;20.00;;;;;;4992296;28;20227;-88
2021/06/25 09:31:56;;;;;;;2.20;1.80;;;32.00;18.00;;;;;;4993647;28;20206;-89
2021/06/25 09:34:37;;;;;;;1.80;1.70;;;31.40;17.30;;;;;;4993406;28;20825;-88
2021/06/25 09:37:05;;;;;;;1.67;1.58;;;30.30;20.40;;;;;;4994687;28;20555;-89
2021/06/25 09:39:32;;;;;;;4.75;1.65;;;29.10;24.30;;;;;;4985327;28;20222;-87
2021/06/25 09:42:00;;;;;;;2.00;1.90;;;29.40;23.50;;;;;;4989610;28;20206;-88
2021/06/25 09:44:28;;;;;;;1.67;1.58;;;30.40;22.10;;;;;;4988148;28;20579;-90
2021/06/25 09:46:56;;;;;;;2.40;1.63;;;31.70;19.40;;;;;;4992411;28;20203;-88
2021/06/25 09:49:26;;;;;;;1.83;1.73;;;33.10;16.80;;;;;;4991287;28;20773;-88
2021/06/25 09:51:54;;;;;;;2.00;1.90;;;33.90;16.20;;;;;;4989120;28;20222;-88
2021/06/25 09:54:21;;;;;;;1.90;1.80;;;33.60;16.50;;;;;;4986784;28;20298;-87
2021/06/25 09:56:52;;;;;;;2.00;1.90;;;33.30;16.70;;;;;;4994135;28;20218;-88
2021/06/25 09:59:30;;;;;;;2.15;2.00;;;33.40;18.30;;;;;;4990344;28;20227;-90
2021/06/25 10:01:58;;;;;;;2.85;2.20;;;33.90;17.80;;;;;;4991866;28;20678;-89
2021/06/25 10:04:36;;;;;;;2.08;1.98;;;34.70;14.80;;;;;;4992257;28;20234;-91
2021/06/25 10:07:13;;;;;;;2.63;2.13;;;35.10;13.00;;;;;;4985405;28;20561;-89
2021/06/25 10:09:40;;;;;;;2.42;2.22;;;34.30;13.90;;;;;;4991549;28;20598;-89
2021/06/25 10:12:10;;;;;;;2.30;2.20;;;34.70;15.60;;;;;;4992282;28;20202;-90
2021/06/25 10:14:39;;;;;;;3.05;2.20;;;35.10;13.30;;;;;;4995549;28;20572;-89
2021/06/25 10:17:08;;;;;;;2.70;2.50;;;34.80;13.50;;;;;;4993856;28;20210;-90
2021/06/25 10:19:37;;;;;;;2.50;2.40;;;35.20;13.60;;;;;;4998103;28;20297;-89
2021/06/25 10:22:08;;;;;;;3.13;2.92;;;35.60;13.30;;;;;;4995709;28;20725;-89
2021/06/25 10:24:35;;;;;;;2.58;2.45;;;35.70;12.40;;;;;;4994774;28;20239;-88
2021/06/25 10:27:04;;;;;;;2.92;2.72;;;35.30;14.40;;;;;;4995777;28;20214;-89
2021/06/25 10:29:34;;;;;;;3.13;2.40;;;34.70;14.70;;;;;;4990368;28;20236;-89
2021/06/25 10:32:06;;;;;;;2.03;1.92;;;34.00;15.30;;;;;;4993308;28;20200;-91
2021/06/25 10:34:34;;;;;;;2.20;2.00;;;32.70;16.90;;;;;;4994007;28;20231;-89
2021/06/25 10:37:04;;;;;;;1.73;1.63;;;31.30;17.30;;;;;;4990249;28;20215;-88
2021/06/25 10:39:32;;;;;;;1.83;1.65;;;29.80;20.00;;;;;;4990168;28;20231;-89
2021/06/25 10:42:02;;;;;;;1.98;1.60;;;28.70;21.90;;;;;;4999550;28;20227;-88
2021/06/25 10:44:42;;;;;;;1.60;1.50;;;27.70;25.00;;;;;;4994607;28;20224;-88
2021/06/25 10:47:34;;;;;;;1.75;1.65;;;26.40;28.90;;;;;;4996023;28;20226;-86
2021/06/25 10:50:25;;;;;;;1.80;1.48;;;25.00;32.30;;;;;;4981848;28;20287;-85
2021/06/25 10:53:16;;;;;;;1.63;1.42;;;24.20;34.80;;;;;;4993893;28;20236;-85
2021/06/25 10:55:58;;;;;;;1.70;1.60;;;23.50;36.60;;;;;;4986425;28;20223;-87
2021/06/25 10:58:27;;;;;;;1.50;1.40;;;23.00;38.30;;;;;;5002972;28;20255;-90
2021/06/25 11:00:58;;;;;;;1.70;1.60;;;23.00;39.90;;;;;;5001251;28;20204;-87
2021/06/25 11:03:38;;;;;;;1.60;1.50;;;22.90;40.30;;;;;;4994833;28;20689;-88
2021/06/25 11:06:09;;;;;;;3.22;1.75;;;23.00;40.40;;;;;;4997507;28;20207;-89
2021/06/25 11:08:36;;;;;;;2.05;1.48;;;22.90;40.90;;;;;;4992466;28;20231;-88
2021/06/25 11:11:03;;;;;;;1.80;1.58;;;22.90;41.30;;;;;;4997573;28;20240;-87
2021/06/25 11:13:34;;;;;;;1.80;1.70;;;23.10;41.00;;;;;;4996940;28;20288;-90
2021/06/25 11:16:20;;;;;;;1.92;1.73;;;23.30;40.40;;;;;;4995032;28;20196;-88
2021/06/25 11:18:48;;;;;;;1.92;1.83;;;23.40;39.60;;;;;;4997765;28;20269;-87
2021/06/25 11:21:15;;;;;;;1.80;1.70;;;23.20;39.30;;;;;;4994619;28;20235;-87
2021/06/25 11:23:44;;;;;;;1.58;1.48;;;23.10;41.10;;;;;;4996701;28;20220;-87
2021/06/25 11:26:23;;;;;;;2.20;1.50;;;23.30;40.60;;;;;;4995349;28;20205;-87
2021/06/25 11:28:51;;;;;;;1.80;1.70;;;23.60;40.10;;;;;;4992433;28;20227;-88
2021/06/25 11:31:23;;;;;;;1.83;1.73;;;23.90;40.20;;;;;;5000762;28;20271;-87
2021/06/25 11:33:55;;;;;;;2.88;1.73;;;23.90;40.50;;;;;;5000521;28;20234;-88
2021/06/25 11:36:47;;;;;;;1.70;1.60;;;24.00;38.60;;;;;;5001412;28;20216;-91
2021/06/25 11:39:21;;;;;;;1.63;1.50;;;23.80;39.60;;;;;;4991288;28;20249;-87
2021/06/25 11:41:55;;;;;;;1.40;1.30;;;23.90;39.70;;;;;;4998760;28;20200;-87
2021/06/25 11:44:25;;;;;;;1.75;1.40;;;23.80;40.00;;;;;;4999373;28;20280;-88
2021/06/25 11:47:01;;;;;;;1.60;1.50;;;23.60;37.50;;;;;;4995803;28;20192;-86
2021/06/25 11:49:37;;;;;;;1.63;1.52;;;23.30;40.00;;;;;;4989684;28;20239;-88
2021/06/25 11:52:06;;;;;;;1.60;1.50;;;23.40;39.60;;;;;;4998710;28;20286;-88
2021/06/25 11:54:35;;;;;;;1.60;1.50;;;23.70;36.30;;;;;;4997102;28;20227;-91
2021/06/25 11:57:02;;;;;;;1.60;1.50;;;23.90;37.00;;;;;;5001962;28;20204;-92
2021/06/25 11:59:28;;;;;;;1.38;1.33;;;24.30;38.70;;;;;;4998221;28;20232;-89
2021/06/25 12:01:57;;;;;;;1.38;1.30;;;24.50;35.80;;;;;;4994972;28;20201;-90
2021/06/25 12:04:39;;;;;;;1.50;1.40;;;25.20;36.30;;;;;;4995651;28;20239;-87
2021/06/25 12:07:08;;;;;;;1.75;1.58;;;25.30;33.40;;;;;;4994476;28;20199;-87
2021/06/25 12:09:43;;;;;;;1.40;1.30;;;25.60;34.00;;;;;;4990707;28;20589;-85
2021/06/25 12:12:12;;;;;;;2.00;1.80;;;26.10;34.20;;;;;;4991260;28;20204;-87
2021/06/25 12:14:43;;;;;;;1.48;1.38;;;26.10;34.10;;;;;;4989635;28;20224;-87
2021/06/25 12:17:10;;;;;;;2.10;2.00;;;25.70;34.60;;;;;;4990831;28;20214;-86
2021/06/25 12:19:39;;;;;;;1.38;1.30;;;25.40;32.70;;;;;;4989238;28;20231;-89
2021/06/25 12:22:08;;;;;;;2.25;2.05;;;25.00;32.00;;;;;;4994867;28;20212;-87
2021/06/25 12:24:48;;;;;;;1.30;1.20;;;24.70;36.00;;;;;;4991954;28;20233;-88
2021/06/25 12:27:15;;;;;;;1.60;1.50;;;24.30;35.70;;;;;;4987519;28;20623;-88
2021/06/25 12:29:43;;;;;;;1.70;1.42;;;24.50;35.80;;;;;;4986557;28;20225;-88
2021/06/25 12:32:21;;;;;;;3.05;1.70;;;24.30;35.70;;;;;;4994015;28;20590;-89
2021/06/25 12:34:57;;;;;;;3.03;1.40;;;24.20;35.60;;;;;;4989461;28;20234;-87
2021/06/25 12:37:25;;;;;;;1.63;1.52;;;24.20;35.60;;;;;;4994734;28;20211;-89
2021/06/25 12:39:51;;;;;;;1.70;1.60;;;24.10;35.50;;;;;;4988882;28;20286;-89
2021/06/25 12:42:21;;;;;;;2.03;1.70;;;24.00;35.40;;;;;;4993802;28;20204;-89
2021/06/25 12:44:48;;;;;;;1.60;1.50;;;24.10;35.50;;;;;;4992782;28;20220;-89
2021/06/25 12:47:15;;;;;;;2.47;1.40;;;24.40;35.80;;;;;;4995553;28;20658;-88
2021/06/25 12:49:42;;;;;;;3.35;1.83;;;24.60;36.00;;;;;;4996976;28;20242;-88
2021/06/25 12:52:22;;;;;;;2.10;1.90;;;24.80;35.80;;;;;;4990229;28;20374;-89
2021/06/25 12:54:50;;;;;;;3.42;2.35;;;24.70;36.00;;;;;;4996107;28;20231;-87
2021/06/25 12:57:19;;;;;;;2.65;1.67;;;24.90;36.00;;;;;;4992341;28;20254;-87
2021/06/25 12:59:48;;;;;;;4.53;2.38;;;25.20;36.30;;;;;;4988768;28;20236;-87
2021/06/25 13:02:15;;;;;;;2.08;1.50;;;25.20;36.30;;;;;;4993343;28;20212;-87
2021/06/25 13:04:42;;;;;;;2.58;1.50;;;25.20;36.40;;;;;;4996417;28;20311;-86
2021/06/25 13:07:10;;;;;;;1.35;1.25;;;25.00;34.10;;;;;;4990726;28;20207;-85
2021/06/25 13:09:40;;;;;;;1.55;1.45;;;25.10;33.90;;;;;;4996914;28;20228;-87
2021/06/25 13:12:12;;;;;;;1.50;1.40;;;24.90;36.00;;;;;;4986544;28;20200;-86
2021/06/25 13:14:41;;;;;;;1.15;1.15;;;25.30;36.40;;;;;;4987016;28;20215;-87
2021/06/25 13:17:09;;;;;;;2.35;1.67;;;25.70;34.50;;;;;;4987824;28;20204;-86
2021/06/25 13:19:41;;;;;;;1.85;1.55;;;25.70;35.60;;;;;;4989117;28;20706;-85
2021/06/25 13:22:20;;;;;;;2.33;1.40;;;25.70;34.70;;;;;;4994372;28;20208;-86
2021/06/25 13:25:20;;;;;;;1.92;1.23;;;25.70;31.90;;;;;;4995689;28;20219;-87
2021/06/25 13:27:50;;;;;;;4.95;1.42;;;25.30;32.20;;;;;;4996255;28;20196;-87
2021/06/25 13:30:18;;;;;;;3.08;1.27;;;25.10;31.20;;;;;;4994337;28;20369;-86
2021/06/25 13:32:54;;;;;;;2.95;1.33;;;24.90;33.00;;;;;;4997529;28;20211;-88
2021/06/25 13:35:22;;;;;;;1.52;1.42;;;24.50;35.80;;;;;;4994322;28;20254;-90
2021/06/25 13:37:50;;;;;;;1.50;1.40;;;24.30;35.80;;;;;;4996994;28;20210;-89
2021/06/25 13:40:24;;;;;;;1.35;1.30;;;23.90;36.10;;;;;;4996991;28;20249;-89
2021/06/25 13:43:14;;;;;;;2.72;1.50;;;23.80;37.60;;;;;;4993486;28;20211;-90
2021/06/25 13:45:42;;;;;;;6.78;1.48;;;23.60;38.20;;;;;;4993936;28;20275;-89
2021/06/25 13:48:23;;;;;;;2.40;2.20;;;23.40;41.00;;;;;;4991953;28;20626;-89
2021/06/25 13:50:52;;;;;;;2.95;1.40;;;23.30;41.00;;;;;;4991069;28;20214;-90
2021/06/25 13:53:34;;;;;;;1.90;1.80;;;23.00;42.80;;;;;;4990574;28;20240;-89
2021/06/25 13:56:05;;;;;;;1.85;1.38;;;22.70;41.10;;;;;;4993236;28;20211;-89
2021/06/25 13:58:32;;;;;;;1.58;1.40;;;22.60;42.30;;;;;;4990936;28;20593;-90
2021/06/25 14:01:01;;;;;;;1.50;1.40;;;22.50;42.60;;;;;;4996372;28;20214;-89
2021/06/25 14:03:30;;;;;;;1.88;1.45;;;22.30;43.00;;;;;;4992514;28;20236;-89
2021/06/25 14:06:00;;;;;;;1.50;1.20;;;22.50;44.50;;;;;;4990866;28;20208;-89
2021/06/25 14:08:38;;;;;;;1.60;1.50;;;22.80;43.80;;;;;;4984176;28;20229;-90
2021/06/25 14:11:12;;;;;;;1.52;1.42;;;23.10;40.70;;;;;;4997720;28;20381;-89
2021/06/25 14:13:41;;;;;;;2.58;1.40;;;23.40;41.40;;;;;;4991372;28;20608;-89